Time;durP1;ratioP1;P1;durP2;ratioP2;P2;SDS_P1;SDS_P2;PMS_P1;PMS_P2;Temp;Humidity;BMP_temperature;BMP_pressure;BME280_temperature;BME280_humidity;BME280_pressure;Samples;Min_cycle;Max_cycle;Signal;HPM_P1;HPM_P2
2023/10/17 00:00:51;;;;;;;47.43;22.37;;;;;;;;;;5014117;28;20021;-64
2023/10/17 00:03:16;;;;;;;49.47;22.70;;;;;;;;;;5012061;28;20057;-65
2023/10/17 00:05:42;;;;;;;43.90;22.03;;;;;;;;;;5011987;28;20333;-65
2023/10/17 00:08:09;;;;;;;46.57;22.70;;;;;;;;;;5012036;28;20026;-65
2023/10/17 00:10:41;;;;;;;51.40;23.80;;;;;;;;;;5011009;28;20436;-65
2023/10/17 00:13:31;;;;;;;48.30;22.17;;;;;;;;;;5011041;28;20093;-65
2023/10/17 00:15:56;;;;;;;52.03;25.60;;;;;;;;;;5015259;28;20026;-66
2023/10/17 00:18:25;;;;;;;57.97;25.93;;;;;;;;;;5014947;28;20058;-65
2023/10/17 00:20:51;;;;;;;60.87;27.57;;;;;;;;;;5010685;28;20034;-65
2023/10/17 00:23:20;;;;;;;52.53;25.80;;;;;;;;;;5011719;28;20033;-65
2023/10/17 00:25:45;;;;;;;56.87;26.80;;;;;;;;;;5012239;28;20042;-65
2023/10/17 00:28:11;;;;;;;58.97;27.37;;;;;;;;;;5011269;28;20030;-65
2023/10/17 00:30:38;;;;;;;60.80;28.27;;;;;;;;;;5014150;28;20472;-65
2023/10/17 00:33:05;;;;;;;62.80;27.83;;;;;;;;;;5012638;28;20053;-65
2023/10/17 00:35:36;;;;;;;64.73;27.20;;;;;;;;;;5011207;28;20426;-65
2023/10/17 00:38:05;;;;;;;61.08;25.63;;;;;;;;;;5010684;28;20030;-65
2023/10/17 00:40:51;;;;;;;55.27;25.70;;;;;;;;;;5010615;28;20033;-65
2023/10/17 00:43:17;;;;;;;54.03;25.30;;;;;;;;;;5011776;28;20468;-65
2023/10/17 00:45:45;;;;;;;58.40;26.47;;;;;;;;;;5014731;28;20026;-65
2023/10/17 00:48:22;;;;;;;61.40;27.93;;;;;;;;;;5011754;28;20022;-65
2023/10/17 00:50:56;;;;;;;56.83;26.90;;;;;;;;;;5010282;28;20550;-65
2023/10/17 00:53:22;;;;;;;66.33;27.17;;;;;;;;;;5012018;28;20053;-65
2023/10/17 00:55:52;;;;;;;51.63;25.37;;;;;;;;;;5016155;28;20371;-65
2023/10/17 00:58:24;;;;;;;54.63;26.50;;;;;;;;;;5021352;28;20100;-65
2023/10/17 01:03:33;;;;;;;55.37;24.40;;;;;;;;;;5012752;28;20453;-65
2023/10/17 01:06:13;;;;;;;55.17;26.40;;;;;;;;;;5011715;28;20034;-65
2023/10/17 01:08:48;;;;;;;55.90;26.17;;;;;;;;;;5009761;28;20075;-65
2023/10/17 01:11:20;;;;;;;61.37;27.57;;;;;;;;;;5010348;28;20467;-65
2023/10/17 01:13:47;;;;;;;56.87;26.30;;;;;;;;;;5009741;28;20032;-65
2023/10/17 01:16:12;;;;;;;58.30;26.37;;;;;;;;;;5010990;28;20034;-65
2023/10/17 01:18:37;;;;;;;63.53;27.90;;;;;;;;;;5010314;28;20041;-65
2023/10/17 01:21:04;;;;;;;56.43;26.43;;;;;;;;;;5014234;28;20026;-64
2023/10/17 01:23:31;;;;;;;58.30;26.13;;;;;;;;;;5010912;28;20030;-65
2023/10/17 01:25:56;;;;;;;61.80;27.00;;;;;;;;;;5012031;28;20025;-65
2023/10/17 01:28:22;;;;;;;56.43;26.03;;;;;;;;;;5009900;28;20468;-65
2023/10/17 01:30:48;;;;;;;62.33;28.50;;;;;;;;;;5009900;28;20022;-65
2023/10/17 01:33:13;;;;;;;61.87;28.90;;;;;;;;;;5011713;28;20040;-65
2023/10/17 01:35:43;;;;;;;66.00;30.10;;;;;;;;;;5011786;28;20503;-65
2023/10/17 01:38:09;;;;;;;66.03;28.67;;;;;;;;;;5013199;28;20100;-65
2023/10/17 01:40:34;;;;;;;61.23;27.87;;;;;;;;;;5009087;28;20578;-65
2023/10/17 01:43:00;;;;;;;65.93;28.83;;;;;;;;;;5010528;28;20026;-65
2023/10/17 01:45:27;;;;;;;66.30;30.30;;;;;;;;;;5009593;28;20021;-65
2023/10/17 01:47:52;;;;;;;77.70;32.20;;;;;;;;;;5009740;28;20018;-65
2023/10/17 01:50:19;;;;;;;75.43;31.67;;;;;;;;;;5006019;28;20022;-65
2023/10/17 01:52:45;;;;;;;94.57;36.20;;;;;;;;;;5009379;28;20128;-65
2023/10/17 01:55:13;;;;;;;98.70;39.23;;;;;;;;;;5005962;28;20025;-65
2023/10/17 01:57:43;;;;;;;95.27;38.57;;;;;;;;;;5009601;28;20487;-65
2023/10/17 02:00:16;;;;;;;99.30;37.50;;;;;;;;;;5013549;28;20487;-65
2023/10/17 02:02:42;;;;;;;86.33;35.40;;;;;;;;;;5009493;28;20017;-65
2023/10/17 02:05:12;;;;;;;73.80;33.40;;;;;;;;;;5009347;28;20013;-65
2023/10/17 02:07:38;;;;;;;82.80;33.43;;;;;;;;;;5011902;28;20109;-65
2023/10/17 02:10:07;;;;;;;80.03;33.13;;;;;;;;;;5014042;28;20559;-69
2023/10/17 02:12:33;;;;;;;73.63;31.37;;;;;;;;;;5013239;28;20022;-69
2023/10/17 02:15:00;;;;;;;76.53;32.87;;;;;;;;;;5013793;28;20021;-68
2023/10/17 02:17:25;;;;;;;79.77;33.03;;;;;;;;;;5011882;28;20492;-68
2023/10/17 02:19:53;;;;;;;81.97;34.97;;;;;;;;;;5009651;28;20056;-68
2023/10/17 02:22:18;;;;;;;77.03;33.30;;;;;;;;;;5015299;28;20014;-68
2023/10/17 02:24:43;;;;;;;81.97;35.00;;;;;;;;;;5019125;28;20030;-68
2023/10/17 02:27:09;;;;;;;81.03;35.40;;;;;;;;;;5012873;28;20067;-69
2023/10/17 02:29:39;;;;;;;85.53;35.07;;;;;;;;;;5013166;28;20022;-68
2023/10/17 02:32:05;;;;;;;83.73;34.13;;;;;;;;;;5023419;28;20117;-68
2023/10/17 02:34:31;;;;;;;93.60;35.10;;;;;;;;;;5012724;28;20018;-68
2023/10/17 02:36:56;;;;;;;87.40;35.43;;;;;;;;;;5014513;28;20018;-69
2023/10/17 02:39:22;;;;;;;87.27;36.47;;;;;;;;;;5015660;28;20026;-68
2023/10/17 02:41:57;;;;;;;83.03;33.90;;;;;;;;;;5012070;28;20029;-69
2023/10/17 02:44:23;;;;;;;94.53;36.37;;;;;;;;;;5013997;28;20101;-68
2023/10/17 02:46:48;;;;;;;98.57;36.83;;;;;;;;;;5015734;28;20544;-69
2023/10/17 02:49:16;;;;;;;98.43;38.17;;;;;;;;;;5019328;28;20026;-69
2023/10/17 02:51:42;;;;;;;102.30;39.13;;;;;;;;;;5019223;28;20025;-69
2023/10/17 02:54:12;;;;;;;96.90;38.27;;;;;;;;;;5012470;28;20041;-68
2023/10/17 02:56:38;;;;;;;106.30;37.53;;;;;;;;;;5013962;28;20384;-69
2023/10/17 02:59:06;;;;;;;98.33;39.60;;;;;;;;;;5012387;28;20097;-68
2023/10/17 03:01:32;;;;;;;106.67;39.03;;;;;;;;;;5011626;28;20014;-69
2023/10/17 03:04:10;;;;;;;94.93;37.90;;;;;;;;;;5013003;28;20556;-69
2023/10/17 03:06:40;;;;;;;100.57;38.50;;;;;;;;;;5011345;28;20022;-69
2023/10/17 03:12:19;;;;;;;100.47;38.55;;;;;;;;;;5010891;28;20378;-69
2023/10/17 03:17:11;;;;;;;104.83;37.70;;;;;;;;;;5013126;28;20040;-69
2023/10/17 03:19:37;;;;;;;91.83;37.37;;;;;;;;;;5011630;28;20471;-68
2023/10/17 03:22:16;;;;;;;93.00;36.83;;;;;;;;;;5012882;28;20026;-65
2023/10/17 03:24:45;;;;;;;84.03;35.47;;;;;;;;;;5013662;28;20026;-65
2023/10/17 03:27:11;;;;;;;87.00;35.67;;;;;;;;;;5013665;28;20387;-65
2023/10/17 03:29:36;;;;;;;95.93;37.37;;;;;;;;;;5012744;28;20022;-64
2023/10/17 03:32:04;;;;;;;89.90;36.27;;;;;;;;;;5011051;28;20026;-65
2023/10/17 03:34:37;;;;;;;97.60;36.70;;;;;;;;;;5010620;28;20022;-65
2023/10/17 03:39:53;;;;;;;95.10;35.77;;;;;;;;;;5011335;28;20028;-65
2023/10/17 03:42:43;;;;;;;93.40;35.30;;;;;;;;;;5012647;28;20387;-65
2023/10/17 03:45:26;;;;;;;87.40;35.87;;;;;;;;;;5011501;28;20464;-64
2023/10/17 03:48:04;;;;;;;90.20;35.40;;;;;;;;;;5010358;28;20479;-65
2023/10/17 03:50:34;;;;;;;89.10;36.57;;;;;;;;;;5012117;28;20030;-65
2023/10/17 03:53:06;;;;;;;87.13;34.80;;;;;;;;;;5015006;28;20311;-65
2023/10/17 03:55:32;;;;;;;85.17;33.03;;;;;;;;;;5007740;28;20369;-65
2023/10/17 03:57:59;;;;;;;83.20;34.97;;;;;;;;;;5011648;28;20516;-65
2023/10/17 04:00:25;;;;;;;93.00;35.03;;;;;;;;;;5011933;28;20033;-65
2023/10/17 04:02:51;;;;;;;89.83;35.03;;;;;;;;;;5010842;28;20026;-64
2023/10/17 04:05:17;;;;;;;89.20;32.93;;;;;;;;;;5011296;28;20018;-65
2023/10/17 04:07:42;;;;;;;82.13;31.57;;;;;;;;;;5011253;28;20375;-65
2023/10/17 04:12:39;;;;;;;78.75;32.47;;;;;;;;;;5016217;28;20033;-65
2023/10/17 04:15:07;;;;;;;79.23;33.13;;;;;;;;;;5010973;28;20392;-65
2023/10/17 04:17:36;;;;;;;87.13;32.70;;;;;;;;;;5009958;28;20050;-64
2023/10/17 04:20:16;;;;;;;82.40;33.00;;;;;;;;;;5010823;28;20022;-65
2023/10/17 04:22:44;;;;;;;77.13;32.00;;;;;;;;;;5009885;28;20025;-64
2023/10/17 04:25:19;;;;;;;78.73;31.67;;;;;;;;;;5010446;28;20025;-65
2023/10/17 04:27:45;;;;;;;82.60;31.87;;;;;;;;;;5015850;28;20103;-65
2023/10/17 04:30:15;;;;;;;78.50;31.97;;;;;;;;;;5012522;28;20464;-65
2023/10/17 04:32:42;;;;;;;79.77;30.13;;;;;;;;;;5011203;28;20361;-65
2023/10/17 04:35:08;;;;;;;75.17;30.80;;;;;;;;;;5010455;28;20018;-65
2023/10/17 04:37:34;;;;;;;70.87;28.27;;;;;;;;;;5011861;28;20060;-65
2023/10/17 04:45:57;;;;;;;70.00;28.73;;;;;;;;;;5005159;28;20089;-64
2023/10/17 04:48:36;;;;;;;70.90;28.50;;;;;;;;;;5008650;28;20590;-64
2023/10/17 04:51:38;;;;;;;72.57;28.97;;;;;;;;;;5006893;28;20053;-64
2023/10/17 04:53:55;;;;;;;;;;;;;;;;;;5006918;28;20042;-65
2023/10/17 04:56:23;;;;;;;63.30;26.50;;;;;;;;;;5006841;28;20399;-65
2023/10/17 05:01:41;;;;;;;63.97;26.43;;;;;;;;;;5017764;28;20045;-65
2023/10/17 05:04:33;;;;;;;63.07;23.77;;;;;;;;;;5026976;28;20407;-64
2023/10/17 06:17:40;;;;;;;67.30;26.60;;;;;;;;;;5012862;28;20107;-65
2023/10/17 06:20:11;;;;;;;76.43;29.37;;;;;;;;;;5012961;28;20109;-64
2023/10/17 06:26:05;;;;;;;54.73;23.33;;;;;;;;;;5012911;28;20048;-65
2023/10/17 06:31:10;;;;;;;63.37;24.07;;;;;;;;;;5012679;28;20018;-65
2023/10/17 06:33:35;;;;;;;50.00;22.60;;;;;;;;;;5012764;28;20033;-64
2023/10/17 06:36:13;;;;;;;43.90;20.97;;;;;;;;;;5012766;28;20379;-64
2023/10/17 06:38:46;;;;;;;39.83;18.90;;;;;;;;;;5012538;28;20460;-64
2023/10/17 06:41:16;;;;;;;32.53;15.40;;;;;;;;;;5012739;28;20010;-63
2023/10/17 06:43:46;;;;;;;21.23;11.53;;;;;;;;;;5012655;28;20148;-63
2023/10/17 06:46:13;;;;;;;14.77;9.37;;;;;;;;;;5012376;28;20075;-62
2023/10/17 06:48:48;;;;;;;17.10;9.13;;;;;;;;;;5011334;28;20046;-63
2023/10/17 06:53:48;;;;;;;9.10;5.68;;;;;;;;;;5012599;28;20082;-63
2023/10/17 06:56:15;;;;;;;11.30;6.03;;;;;;;;;;5012332;28;20111;-62
2023/10/17 06:58:40;;;;;;;8.10;5.57;;;;;;;;;;5012283;28;20022;-61
2023/10/17 07:01:19;;;;;;;7.30;4.77;;;;;;;;;;5012522;28;20029;-60
2023/10/17 07:03:45;;;;;;;5.37;3.40;;;;;;;;;;5012347;28;20520;-63
2023/10/17 07:06:13;;;;;;;6.30;2.87;;;;;;;;;;5012315;28;20022;-63
2023/10/17 07:08:38;;;;;;;6.43;2.60;;;;;;;;;;5011741;28;20034;-63
2023/10/17 07:11:10;;;;;;;4.37;2.40;;;;;;;;;;5012348;28;20030;-63
2023/10/17 07:13:54;;;;;;;6.88;2.50;;;;;;;;;;5012398;28;20445;-63
2023/10/17 07:16:27;;;;;;;6.82;2.08;;;;;;;;;;5012014;28;20472;-63
2023/10/17 07:18:52;;;;;;;5.47;2.30;;;;;;;;;;5012253;28;20036;-63
2023/10/17 07:21:27;;;;;;;8.73;2.47;;;;;;;;;;5011603;28;20539;-63
2023/10/17 07:23:56;;;;;;;5.18;2.20;;;;;;;;;;5011816;28;20021;-63
2023/10/17 07:28:51;;;;;;;7.38;2.17;;;;;;;;;;5011857;28;20380;-63
2023/10/17 07:31:20;;;;;;;7.05;2.05;;;;;;;;;;5011698;28;20067;-63
2023/10/17 07:33:46;;;;;;;5.38;2.20;;;;;;;;;;5011806;28;20468;-63
2023/10/17 07:36:15;;;;;;;6.15;2.00;;;;;;;;;;5011692;28;20022;-64
2023/10/17 07:38:46;;;;;;;6.78;2.00;;;;;;;;;;5011774;28;20091;-63
2023/10/17 07:41:14;;;;;;;3.70;1.90;;;;;;;;;;5011862;28;20075;-64
2023/10/17 07:43:58;;;;;;;5.70;2.00;;;;;;;;;;5010242;28;20477;-64
2023/10/17 07:46:26;;;;;;;6.22;2.22;;;;;;;;;;5004194;28;20559;-64
2023/10/17 07:48:52;;;;;;;5.55;2.08;;;;;;;;;;5011310;28;20018;-64
2023/10/17 07:51:17;;;;;;;6.30;1.90;;;;;;;;;;5011524;28;20025;-63
2023/10/17 07:53:45;;;;;;;4.95;2.30;;;;;;;;;;5011443;28;20053;-63
2023/10/17 07:56:20;;;;;;;5.30;2.05;;;;;;;;;;5011340;28;20033;-63
2023/10/17 07:58:45;;;;;;;7.88;1.90;;;;;;;;;;5009754;28;20014;-64
2023/10/17 08:01:14;;;;;;;6.18;1.67;;;;;;;;;;5011520;28;20082;-64
2023/10/17 08:04:13;;;;;;;6.78;1.95;;;;;;;;;;5011102;28;20066;-64
2023/10/17 08:06:31;;;;;;;4.47;1.50;;;;;;;;;;5011303;28;20075;-65
2023/10/17 08:08:58;;;;;;;5.90;1.70;;;;;;;;;;5011248;28;20014;-66
2023/10/17 08:11:26;;;;;;;4.78;1.67;;;;;;;;;;5011450;28;20072;-66
2023/10/17 08:13:53;;;;;;;4.22;1.58;;;;;;;;;;5011350;28;20513;-63
2023/10/17 08:16:26;;;;;;;3.30;1.48;;;;;;;;;;5010992;28;20018;-64
2023/10/17 08:21:48;;;;;;;6.28;1.50;;;;;;;;;;5011159;28;20016;-63
2023/10/17 08:24:14;;;;;;;4.90;1.60;;;;;;;;;;5011054;28;20045;-64
2023/10/17 08:26:40;;;;;;;7.35;1.80;;;;;;;;;;5010850;28;20076;-64
2023/10/17 08:29:08;;;;;;;4.25;1.30;;;;;;;;;;5011140;28;20438;-65
2023/10/17 08:31:36;;;;;;;4.95;1.40;;;;;;;;;;5011104;28;20097;-65
2023/10/17 08:41:57;;;;;;;5.30;1.52;;;;;;;;;;4948063;29;20029;-66
2023/10/17 08:44:28;;;;;;;5.85;1.70;;;;;;;;;;4950461;29;20488;-65
2023/10/17 08:46:54;;;;;;;6.20;1.73;;;;;;;;;;4949940;29;20392;-64
2023/10/17 08:49:20;;;;;;;5.90;1.60;;;;;;;;;;4950158;29;20027;-63
2023/10/17 08:51:47;;;;;;;5.53;1.30;;;;;;;;;;4950188;28;20027;-65
2023/10/17 08:54:12;;;;;;;3.17;1.30;;;;;;;;;;4950270;28;20470;-61
2023/10/17 08:56:38;;;;;;;2.93;1.20;;;;;;;;;;4950100;29;20069;-62
2023/10/17 08:59:03;;;;;;;5.33;1.20;;;;;;;;;;4949864;28;20023;-63
2023/10/17 09:01:29;;;;;;;4.73;1.10;;;;;;;;;;4950098;28;20368;-64
2023/10/17 09:03:56;;;;;;;5.33;1.07;;;;;;;;;;4946007;29;20050;-62
2023/10/17 09:11:14;;;;;;;4.80;1.00;;;;;;;;;;4950036;29;20015;-62
2023/10/17 09:16:13;;;;;;;6.43;1.50;;;;;;;;;;4976718;28;20037;-63
2023/10/17 09:18:47;;;;;;;2.97;1.20;;;;;;;;;;5009929;28;20042;-61
2023/10/17 09:21:13;;;;;;;4.47;1.20;;;;;;;;;;5010458;28;20015;-63
2023/10/17 09:23:41;;;;;;;3.67;1.30;;;;;;;;;;5010317;28;20018;-63
2023/10/17 09:26:19;;;;;;;3.80;1.13;;;;;;;;;;5010291;28;20022;-61
2023/10/17 09:28:46;;;;;;;4.23;1.13;;;;;;;;;;5010363;28;20022;-65
2023/10/17 09:31:13;;;;;;;4.43;1.00;;;;;;;;;;5009870;28;20014;-64
2023/10/17 09:33:45;;;;;;;3.60;1.20;;;;;;;;;;5010264;28;20041;-65
2023/10/17 09:36:11;;;;;;;3.57;0.90;;;;;;;;;;5009810;28;20113;-62
2023/10/17 09:38:46;;;;;;;2.70;0.70;;;;;;;;;;5010004;28;20135;-62
2023/10/17 09:41:17;;;;;;;1.83;0.80;;;;;;;;;;5009934;28;20067;-64
2023/10/17 09:43:43;;;;;;;4.72;0.90;;;;;;;;;;5005929;28;20093;-62
2023/10/17 09:46:17;;;;;;;5.57;0.90;;;;;;;;;;5009639;28;20200;-65
2023/10/17 09:48:43;;;;;;;1.90;0.60;;;;;;;;;;5009736;28;20557;-62
2023/10/17 09:51:17;;;;;;;2.00;0.90;;;;;;;;;;5007241;28;20101;-63
2023/10/17 09:53:43;;;;;;;2.63;0.80;;;;;;;;;;5009971;28;20476;-63
2023/10/17 09:56:19;;;;;;;3.73;1.13;;;;;;;;;;5009941;28;20438;-62
2023/10/17 09:58:47;;;;;;;1.80;0.97;;;;;;;;;;5007700;28;20097;-62
2023/10/17 10:01:20;;;;;;;3.33;0.90;;;;;;;;;;5007306;28;20464;-62
2023/10/17 10:03:46;;;;;;;3.07;0.97;;;;;;;;;;5009684;28;20052;-62
2023/10/17 10:06:19;;;;;;;3.73;0.90;;;;;;;;;;5009306;28;20083;-63
2023/10/17 10:08:44;;;;;;;3.50;1.00;;;;;;;;;;5009397;28;20032;-64
2023/10/17 10:11:11;;;;;;;4.60;1.20;;;;;;;;;;5008281;28;20101;-64
2023/10/17 10:13:57;;;;;;;5.87;1.33;;;;;;;;;;5009673;28;20045;-63
2023/10/17 10:16:42;;;;;;;4.07;1.20;;;;;;;;;;5049883;28;20420;-61
2023/10/17 10:19:09;;;;;;;2.63;0.90;;;;;;;;;;5049516;28;20526;-62
2023/10/17 10:21:54;;;;;;;3.33;1.20;;;;;;;;;;5049658;28;20060;-63
2023/10/17 10:24:24;;;;;;;3.13;1.20;;;;;;;;;;5049806;28;20099;-64
2023/10/17 10:27:09;;;;;;;2.87;1.10;;;;;;;;;;5049631;28;20032;-61
2023/10/17 10:29:34;;;;;;;4.27;1.10;;;;;;;;;;5049542;28;20021;-62
2023/10/17 10:32:05;;;;;;;4.53;1.20;;;;;;;;;;5049661;28;20074;-63
2023/10/17 10:34:32;;;;;;;6.63;1.13;;;;;;;;;;5049345;28;20056;-70
2023/10/17 10:36:57;;;;;;;2.70;1.07;;;;;;;;;;5049565;28;20025;-69
2023/10/17 10:39:23;;;;;;;4.20;1.97;;;;;;;;;;5049581;28;20406;-69
2023/10/17 10:41:55;;;;;;;2.27;0.90;;;;;;;;;;5050067;28;20028;-66
2023/10/17 10:44:20;;;;;;;4.53;1.40;;;;;;;;;;5050074;28;20020;-69
2023/10/17 10:46:45;;;;;;;4.67;1.30;;;;;;;;;;5053110;28;20029;-69
2023/10/17 10:49:11;;;;;;;3.20;1.20;;;;;;;;;;5053254;28;20024;-69
2023/10/17 10:51:36;;;;;;;3.80;1.10;;;;;;;;;;5052854;28;20028;-69
2023/10/17 10:54:01;;;;;;;2.50;0.90;;;;;;;;;;5022657;28;20417;-66
2023/10/17 10:56:27;;;;;;;3.97;1.50;;;;;;;;;;5024508;28;20499;-69
2023/10/17 10:58:56;;;;;;;2.50;1.07;;;;;;;;;;5012099;28;20025;-70
2023/10/17 11:01:22;;;;;;;2.57;1.13;;;;;;;;;;5012169;28;20025;-70
2023/10/17 11:03:48;;;;;;;5.03;1.43;;;;;;;;;;5008267;28;20014;-72
2023/10/17 11:06:14;;;;;;;6.57;1.33;;;;;;;;;;5011977;28;20021;-71
2023/10/17 11:08:41;;;;;;;3.30;1.00;;;;;;;;;;5012062;28;20056;-71
2023/10/17 11:11:09;;;;;;;3.37;1.23;;;;;;;;;;5012473;28;20014;-69
2023/10/17 11:13:36;;;;;;;2.83;1.00;;;;;;;;;;5012264;28;20487;-68
2023/10/17 11:16:01;;;;;;;4.73;1.53;;;;;;;;;;5011790;28;20476;-71
2023/10/17 11:18:28;;;;;;;4.27;1.20;;;;;;;;;;5011604;28;20042;-67
2023/10/17 11:20:54;;;;;;;4.67;1.30;;;;;;;;;;5011997;28;20021;-70
2023/10/17 11:23:19;;;;;;;2.57;0.90;;;;;;;;;;5011946;28;20014;-67
2023/10/17 11:25:46;;;;;;;4.83;1.10;;;;;;;;;;5011900;28;20395;-69
2023/10/17 11:28:11;;;;;;;4.67;1.10;;;;;;;;;;5012161;28;20376;-69
2023/10/17 11:30:40;;;;;;;2.90;1.00;;;;;;;;;;5012047;28;20026;-71
2023/10/17 11:33:10;;;;;;;2.33;0.80;;;;;;;;;;5011669;28;20029;-68
2023/10/17 11:35:35;;;;;;;2.90;0.80;;;;;;;;;;5011508;28;20479;-68
2023/10/17 11:38:02;;;;;;;3.73;0.93;;;;;;;;;;5011639;28;20014;-71
2023/10/17 11:40:44;;;;;;;2.30;0.80;;;;;;;;;;5011591;28;20067;-68
2023/10/17 11:43:17;;;;;;;4.03;0.83;;;;;;;;;;5011485;28;20030;-62
2023/10/17 11:45:43;;;;;;;1.93;0.73;;;;;;;;;;5011292;28;20018;-64
2023/10/17 11:48:27;;;;;;;2.53;0.80;;;;;;;;;;5011416;28;20346;-66
2023/10/17 11:51:06;;;;;;;1.93;0.70;;;;;;;;;;5009390;28;20051;-66
2023/10/17 11:53:32;;;;;;;2.87;0.80;;;;;;;;;;5007757;28;20044;-62
2023/10/17 11:55:58;;;;;;;4.03;0.63;;;;;;;;;;5011588;28;20030;-64
2023/10/17 11:58:29;;;;;;;3.73;0.80;;;;;;;;;;5011336;28;20071;-64
2023/10/17 12:00:54;;;;;;;2.23;0.60;;;;;;;;;;5011246;28;20475;-66
2023/10/17 12:03:20;;;;;;;2.23;1.00;;;;;;;;;;5011205;28;20024;-63
2023/10/17 12:05:48;;;;;;;1.97;0.87;;;;;;;;;;5010673;28;20134;-63
2023/10/17 12:08:23;;;;;;;3.93;0.80;;;;;;;;;;5008301;28;20026;-65
2023/10/17 12:10:51;;;;;;;2.33;0.93;;;;;;;;;;5011221;28;20369;-65
2023/10/17 12:13:19;;;;;;;4.67;0.80;;;;;;;;;;5011330;28;20545;-63
2023/10/17 12:15:47;;;;;;;2.63;0.70;;;;;;;;;;5011018;28;20033;-66
2023/10/17 12:18:12;;;;;;;2.10;0.70;;;;;;;;;;5010871;28;20107;-66
2023/10/17 12:20:40;;;;;;;1.30;0.50;;;;;;;;;;5010875;28;20472;-65
2023/10/17 12:23:08;;;;;;;2.47;0.70;;;;;;;;;;5011263;28;20010;-66
2023/10/17 12:25:34;;;;;;;2.20;0.60;;;;;;;;;;5010947;28;20018;-66
2023/10/17 12:28:02;;;;;;;3.53;0.50;;;;;;;;;;5011091;28;20079;-64
2023/10/17 12:30:35;;;;;;;1.17;0.60;;;;;;;;;;5010741;28;20057;-65
2023/10/17 12:33:01;;;;;;;3.70;0.70;;;;;;;;;;5011086;28;20026;-63
2023/10/17 12:35:27;;;;;;;5.07;0.63;;;;;;;;;;5010677;28;20021;-65
2023/10/17 12:37:57;;;;;;;2.10;0.70;;;;;;;;;;5010899;28;20375;-66
2023/10/17 12:40:22;;;;;;;3.03;0.95;;;;;;;;;;5010701;28;20030;-66
2023/10/17 12:42:48;;;;;;;2.08;0.63;;;;;;;;;;5010878;28;20030;-68
2023/10/17 12:45:17;;;;;;;2.67;0.50;;;;;;;;;;5008453;28;20408;-67
2023/10/17 12:47:45;;;;;;;4.55;0.70;;;;;;;;;;5010930;28;20036;-66
2023/10/17 12:50:15;;;;;;;2.83;0.80;;;;;;;;;;5010779;28;20403;-63
2023/10/17 12:52:40;;;;;;;3.35;0.85;;;;;;;;;;5010496;28;20038;-63
2023/10/17 12:55:07;;;;;;;2.35;0.60;;;;;;;;;;5010841;28;20030;-68
2023/10/17 12:57:32;;;;;;;3.45;0.80;;;;;;;;;;5010826;28;20047;-68
2023/10/17 12:59:59;;;;;;;2.47;0.60;;;;;;;;;;5010584;28;20113;-69
2023/10/17 13:02:24;;;;;;;0.77;0.40;;;;;;;;;;5010740;28;20467;-69
2023/10/17 13:04:49;;;;;;;4.35;0.73;;;;;;;;;;5010171;28;20022;-70
2023/10/17 13:07:15;;;;;;;1.58;0.70;;;;;;;;;;5010386;28;20044;-70
2023/10/17 13:09:41;;;;;;;3.58;0.90;;;;;;;;;;5010436;28;20020;-68
2023/10/17 13:12:06;;;;;;;3.40;1.00;;;;;;;;;;5010146;28;20428;-69
2023/10/17 13:14:32;;;;;;;2.07;0.60;;;;;;;;;;5010475;28;20037;-68
2023/10/17 13:16:57;;;;;;;2.80;0.60;;;;;;;;;;5008781;28;20411;-70
2023/10/17 13:19:23;;;;;;;2.90;0.80;;;;;;;;;;5010022;28;20030;-72
2023/10/17 13:21:49;;;;;;;2.53;0.98;;;;;;;;;;5010371;28;20409;-69
2023/10/17 13:24:14;;;;;;;3.45;0.70;;;;;;;;;;5010001;28;20065;-69
2023/10/17 13:26:40;;;;;;;3.92;0.80;;;;;;;;;;5010325;28;20053;-70
2023/10/17 13:29:05;;;;;;;5.28;0.80;;;;;;;;;;5009912;28;20022;-71
2023/10/17 13:31:30;;;;;;;2.33;0.80;;;;;;;;;;5009712;28;20046;-68
2023/10/17 13:33:56;;;;;;;3.90;0.70;;;;;;;;;;5010104;28;20053;-69
2023/10/17 13:36:21;;;;;;;2.90;0.75;;;;;;;;;;5009968;28;20006;-68
2023/10/17 13:38:48;;;;;;;5.20;1.00;;;;;;;;;;5009890;28;20067;-69
2023/10/17 13:41:15;;;;;;;6.28;0.90;;;;;;;;;;5008610;28;20468;-70
2023/10/17 13:43:41;;;;;;;3.20;0.95;;;;;;;;;;5009825;28;20053;-68
2023/10/17 13:46:13;;;;;;;4.43;1.13;;;;;;;;;;5006459;28;20464;-67
2023/10/17 13:48:39;;;;;;;4.03;1.13;;;;;;;;;;5021722;28;20464;-68
2023/10/17 13:51:06;;;;;;;6.72;1.25;;;;;;;;;;5009541;28;20078;-68
2023/10/17 13:53:32;;;;;;;2.50;0.80;;;;;;;;;;5009653;28;20047;-67
2023/10/17 13:55:57;;;;;;;3.58;1.00;;;;;;;;;;5009583;28;20021;-67
2023/10/17 13:58:22;;;;;;;3.83;1.10;;;;;;;;;;5009549;28;20028;-68
2023/10/17 14:00:51;;;;;;;2.28;0.77;;;;;;;;;;5009911;28;20123;-68
2023/10/17 14:03:17;;;;;;;4.47;1.08;;;;;;;;;;5009405;28;20103;-68
2023/10/17 14:05:47;;;;;;;4.10;0.93;;;;;;;;;;5009780;28;20070;-62
2023/10/17 14:08:13;;;;;;;2.72;0.85;;;;;;;;;;5009221;28;20109;-63
2023/10/17 14:10:39;;;;;;;4.00;0.98;;;;;;;;;;5009625;28;20097;-63
2023/10/17 14:13:08;;;;;;;2.67;0.95;;;;;;;;;;5009589;28;20483;-63
2023/10/17 14:15:34;;;;;;;2.60;0.90;;;;;;;;;;5009631;28;20159;-61
2023/10/17 14:18:09;;;;;;;4.32;1.00;;;;;;;;;;5010002;28;20053;-63
2023/10/17 14:20:53;;;;;;;4.28;0.90;;;;;;;;;;5013075;28;20532;-62
2023/10/17 14:23:26;;;;;;;6.40;0.90;;;;;;;;;;5030366;28;20042;-64
2023/10/17 14:26:12;;;;;;;4.57;0.85;;;;;;;;;;5029962;28;20388;-63
2023/10/17 14:28:37;;;;;;;5.72;0.95;;;;;;;;;;5011969;28;20483;-62
2023/10/17 14:31:03;;;;;;;5.40;0.90;;;;;;;;;;5012683;28;20028;-62
2023/10/17 14:33:32;;;;;;;1.75;0.73;;;;;;;;;;5012853;28;20052;-64
2023/10/17 14:36:00;;;;;;;3.73;0.80;;;;;;;;;;5012429;28;20109;-63
2023/10/17 14:38:25;;;;;;;3.15;0.90;;;;;;;;;;5012835;28;20014;-63
2023/10/17 14:40:51;;;;;;;3.03;1.10;;;;;;;;;;5011690;28;20014;-63
2023/10/17 14:43:17;;;;;;;4.80;0.80;;;;;;;;;;5012313;28;20014;-63
2023/10/17 14:45:44;;;;;;;2.60;0.90;;;;;;;;;;5012332;28;20074;-64
2023/10/17 14:48:11;;;;;;;2.47;0.80;;;;;;;;;;5012691;28;20018;-65
2023/10/17 14:50:37;;;;;;;3.87;0.80;;;;;;;;;;5012510;28;20018;-65
2023/10/17 14:53:02;;;;;;;4.33;0.90;;;;;;;;;;5012578;28;20109;-66
2023/10/17 14:55:28;;;;;;;3.53;0.90;;;;;;;;;;5012266;28;20093;-67
2023/10/17 14:57:53;;;;;;;5.63;1.00;;;;;;;;;;5012535;28;20033;-68
2023/10/17 15:00:20;;;;;;;5.82;1.20;;;;;;;;;;5012216;28;20400;-67
2023/10/17 15:02:47;;;;;;;4.03;1.00;;;;;;;;;;5011955;28;20018;-67
2023/10/17 15:05:13;;;;;;;4.97;0.90;;;;;;;;;;5012469;28;20383;-68
2023/10/17 15:07:41;;;;;;;6.27;0.80;;;;;;;;;;5012141;28;20026;-67
2023/10/17 15:10:11;;;;;;;4.87;1.20;;;;;;;;;;5011938;28;20025;-69
2023/10/17 15:12:45;;;;;;;3.40;0.70;;;;;;;;;;5011965;28;20087;-65
2023/10/17 15:15:11;;;;;;;4.00;1.03;;;;;;;;;;5011896;28;20014;-73
2023/10/17 15:17:38;;;;;;;4.40;1.00;;;;;;;;;;5011490;28;20396;-71
2023/10/17 15:20:03;;;;;;;2.67;0.80;;;;;;;;;;5011807;28;20032;-70
2023/10/17 15:22:28;;;;;;;3.77;1.10;;;;;;;;;;5011942;28;20022;-71
2023/10/17 15:24:55;;;;;;;3.67;1.00;;;;;;;;;;5012052;28;20426;-70
2023/10/17 15:27:21;;;;;;;4.57;0.90;;;;;;;;;;5012118;28;20371;-70
2023/10/17 15:29:46;;;;;;;3.67;1.20;;;;;;;;;;5011637;28;20022;-70
2023/10/17 15:32:12;;;;;;;4.23;1.10;;;;;;;;;;5011353;28;20109;-72
2023/10/17 15:34:38;;;;;;;3.90;1.10;;;;;;;;;;5011875;28;20079;-71
2023/10/17 15:37:03;;;;;;;5.20;1.27;;;;;;;;;;5011858;28;20029;-71
2023/10/17 15:39:29;;;;;;;4.83;0.97;;;;;;;;;;5011590;28;20399;-71
2023/10/17 15:41:55;;;;;;;3.63;1.20;;;;;;;;;;5011768;28;20096;-70
2023/10/17 15:44:20;;;;;;;5.43;1.20;;;;;;;;;;5012177;28;20622;-69
2023/10/17 15:46:48;;;;;;;3.87;1.10;;;;;;;;;;5031138;28;20104;-71
2023/10/17 15:49:13;;;;;;;3.30;1.20;;;;;;;;;;5010524;28;20025;-71
2023/10/17 15:51:39;;;;;;;4.47;1.37;;;;;;;;;;5007493;28;20014;-71
2023/10/17 15:54:04;;;;;;;3.40;1.10;;;;;;;;;;5011612;28;20026;-71
2023/10/17 15:56:30;;;;;;;3.47;1.13;;;;;;;;;;5011794;28;20018;-71
2023/10/17 15:58:56;;;;;;;4.60;1.13;;;;;;;;;;5011728;28;20429;-71
2023/10/17 16:01:21;;;;;;;7.80;1.23;;;;;;;;;;5011595;28;20021;-72
2023/10/17 16:03:46;;;;;;;3.90;1.13;;;;;;;;;;5011562;28;20022;-71
2023/10/17 16:06:12;;;;;;;5.10;1.30;;;;;;;;;;5011679;28;20071;-70
2023/10/17 16:08:37;;;;;;;5.57;1.23;;;;;;;;;;5011399;28;20022;-69
2023/10/17 16:11:02;;;;;;;6.60;1.30;;;;;;;;;;5011626;28;20384;-70
2023/10/17 16:13:28;;;;;;;4.07;1.40;;;;;;;;;;5008955;28;20014;-69
2023/10/17 16:15:58;;;;;;;3.77;1.10;;;;;;;;;;5009094;28;20114;-69
2023/10/17 16:18:23;;;;;;;7.70;1.70;;;;;;;;;;5010588;28;20042;-70
2023/10/17 16:20:49;;;;;;;6.53;1.53;;;;;;;;;;5010912;28;20045;-70
2023/10/17 16:23:14;;;;;;;5.00;1.40;;;;;;;;;;5011101;28;20379;-70
2023/10/17 16:25:40;;;;;;;6.63;1.60;;;;;;;;;;5011295;28;20086;-64
2023/10/17 16:28:05;;;;;;;5.03;1.53;;;;;;;;;;5013924;28;20021;-64
2023/10/17 16:30:30;;;;;;;5.53;1.60;;;;;;;;;;5010955;28;20137;-64
2023/10/17 16:32:57;;;;;;;6.10;1.60;;;;;;;;;;5011151;28;20486;-65
2023/10/17 16:35:23;;;;;;;5.80;1.70;;;;;;;;;;5010800;28;20010;-64
2023/10/17 16:37:48;;;;;;;6.80;2.30;;;;;;;;;;5010528;28;20074;-64
2023/10/17 16:40:16;;;;;;;4.93;1.60;;;;;;;;;;5010340;28;20373;-64
2023/10/17 16:42:42;;;;;;;5.73;1.70;;;;;;;;;;5010876;28;20701;-64